sensor_id;sensor_type;location;lat;lon;timestamp;pressure;altitude;pressure_sealevel;temperature;humidity
10638;BME280;47007;49.252;8.904;2023-01-26T00:00:06;100424.59;;;1.98;100.00
10638;BME280;47007;49.252;8.904;2023-01-26T00:00:48;100423.91;;;1.96;100.00
10638;BME280;47007;49.252;8.904;2023-01-26T00:01:30;100417.00;;;1.95;100.00
10638;BME280;47007;49.252;8.904;2023-01-26T00:02:12;100426.75;;;1.93;100.00
10638;BME280;47007;49.252;8.904;2023-01-26T00:02:54;100412.84;;;1.93;100.00
10638;BME280;47007;49.252;8.904;2023-01-26T00:03:35;100420.47;;;1.96;100.00
10638;BME280;47007;49.252;8.904;2023-01-26T00:04:17;100420.69;;;1.93;100.00
10638;BME280;47007;49.252;8.904;2023-01-26T00:04:59;100422.13;;;1.97;100.00
10638;BME280;47007;49.252;8.904;2023-01-26T00:05:41;100417.97;;;1.94;100.00
10638;BME280;47007;49.252;8.904;2023-01-26T00:06:25;100424.13;;;1.93;100.00
10638;BME280;47007;49.252;8.904;2023-01-26T00:07:07;100412.69;;;1.83;100.00
10638;BME280;47007;49.252;8.904;2023-01-26T00:07:48;100373.16;;;1.64;100.00
10638;BME280;47007;49.252;8.904;2023-01-26T00:08:34;100417.34;;;1.91;100.00
10638;BME280;47007;49.252;8.904;2023-01-26T00:09:16;100357.94;;;1.58;100.00
10638;BME280;47007;49.252;8.904;2023-01-26T00:09:57;100394.50;;;1.82;100.00
10638;BME280;47007;49.252;8.904;2023-01-26T00:10:40;100410.66;;;1.87;100.00
10638;BME280;47007;49.252;8.904;2023-01-26T00:11:24;100412.91;;;1.80;100.00
10638;BME280;47007;49.252;8.904;2023-01-26T00:12:10;100408.94;;;1.74;100.00
10638;BME280;47007;49.252;8.904;2023-01-26T00:12:52;100410.34;;;1.67;100.00
10638;BME280;47007;49.252;8.904;2023-01-26T00:13:34;100378.28;;;1.41;100.00
10638;BME280;47007;49.252;8.904;2023-01-26T00:14:16;100390.31;;;1.44;100.00
10638;BME280;47007;49.252;8.904;2023-01-26T00:14:58;100364.13;;;1.33;100.00
10638;BME280;47007;49.252;8.904;2023-01-26T00:15:43;100386.03;;;1.43;100.00
10638;BME280;47007;49.252;8.904;2023-01-26T00:16:26;100396.25;;;1.46;100.00
10638;BME280;47007;49.252;8.904;2023-01-26T00:17:08;100400.34;;;1.37;100.00
10638;BME280;47007;49.252;8.904;2023-01-26T00:17:49;100404.88;;;1.35;100.00
10638;BME280;47007;49.252;8.904;2023-01-26T00:18:32;100369.81;;;1.14;100.00
10638;BME280;47007;49.252;8.904;2023-01-26T00:19:13;100389.72;;;1.28;100.00
10638;BME280;47007;49.252;8.904;2023-01-26T00:19:56;100394.84;;;1.29;100.00
10638;BME280;47007;49.252;8.904;2023-01-26T00:20:39;100392.34;;;1.28;100.00
10638;BME280;47007;49.252;8.904;2023-01-26T00:21:21;100395.91;;;1.27;100.00
10638;BME280;47007;49.252;8.904;2023-01-26T00:22:03;100394.31;;;1.24;100.00
10638;BME280;47007;49.252;8.904;2023-01-26T00:22:45;100372.88;;;1.08;100.00
10638;BME280;47007;49.252;8.904;2023-01-26T00:23:28;100401.94;;;1.27;100.00
10638;BME280;47007;49.252;8.904;2023-01-26T00:24:10;100390.19;;;1.22;100.00
10638;BME280;47007;49.252;8.904;2023-01-26T00:24:52;100395.63;;;1.19;100.00
10638;BME280;47007;49.252;8.904;2023-01-26T00:25:37;100405.41;;;1.28;100.00
10638;BME280;47007;49.252;8.904;2023-01-26T00:26:24;100372.88;;;1.08;100.00
10638;BME280;47007;49.252;8.904;2023-01-26T00:27:06;100372.88;;;1.08;100.00
10638;BME280;47007;49.252;8.904;2023-01-26T00:27:48;100378.84;;;1.10;100.00
10638;BME280;47007;49.252;8.904;2023-01-26T00:28:29;100386.53;;;1.12;100.00
10638;BME280;47007;49.252;8.904;2023-01-26T00:29:11;100386.53;;;1.12;100.00
10638;BME280;47007;49.252;8.904;2023-01-26T00:29:53;100392.38;;;1.15;100.00
10638;BME280;47007;49.252;8.904;2023-01-26T00:30:35;100395.94;;;1.14;100.00
10638;BME280;47007;49.252;8.904;2023-01-26T00:31:18;100396.78;;;1.15;100.00
10638;BME280;47007;49.252;8.904;2023-01-26T00:32:00;100387.16;;;1.15;100.00
10638;BME280;47007;49.252;8.904;2023-01-26T00:32:42;100390.59;;;1.16;100.00
10638;BME280;47007;49.252;8.904;2023-01-26T00:33:24;100370.38;;;1.06;100.00
10638;BME280;47007;49.252;8.904;2023-01-26T00:34:05;100386.13;;;1.18;100.00
10638;BME280;47007;49.252;8.904;2023-01-26T00:34:47;100358.16;;;1.07;100.00
10638;BME280;47007;49.252;8.904;2023-01-26T00:35:29;100373.28;;;1.15;100.00
10638;BME280;47007;49.252;8.904;2023-01-26T00:36:15;100380.44;;;1.24;100.00
10638;BME280;47007;49.252;8.904;2023-01-26T00:36:57;100384.63;;;1.26;100.00
10638;BME280;47007;49.252;8.904;2023-01-26T00:37:41;100387.94;;;1.28;100.00
10638;BME280;47007;49.252;8.904;2023-01-26T00:38:23;100386.91;;;1.31;100.00
10638;BME280;47007;49.252;8.904;2023-01-26T00:39:05;100363.13;;;1.23;100.00
10638;BME280;47007;49.252;8.904;2023-01-26T00:39:48;100354.78;;;1.18;100.00
10638;BME280;47007;49.252;8.904;2023-01-26T00:40:30;100377.66;;;1.38;100.00
10638;BME280;47007;49.252;8.904;2023-01-26T00:41:12;100383.78;;;1.50;100.00
10638;BME280;47007;49.252;8.904;2023-01-26T00:42:14;100350.84;;;1.36;100.00
10638;BME280;47007;49.252;8.904;2023-01-26T00:42:56;100356.81;;;1.49;100.00
10638;BME280;47007;49.252;8.904;2023-01-26T00:43:39;100383.19;;;1.70;100.00
10638;BME280;47007;49.252;8.904;2023-01-26T00:44:21;100375.66;;;1.65;100.00
10638;BME280;47007;49.252;8.904;2023-01-26T00:45:03;100390.31;;;1.79;100.00
10638;BME280;47007;49.252;8.904;2023-01-26T00:45:45;100339.78;;;1.56;100.00
10638;BME280;47007;49.252;8.904;2023-01-26T00:46:27;100355.94;;;1.61;100.00
10638;BME280;47007;49.252;8.904;2023-01-26T00:47:11;100363.31;;;1.67;100.00
10638;BME280;47007;49.252;8.904;2023-01-26T00:47:54;100376.09;;;1.83;100.00
10638;BME280;47007;49.252;8.904;2023-01-26T00:48:35;100357.63;;;1.73;100.00
10638;BME280;47007;49.252;8.904;2023-01-26T00:49:17;100382.63;;;1.89;100.00
10638;BME280;47007;49.252;8.904;2023-01-26T00:49:58;100360.53;;;1.82;100.00
10638;BME280;47007;49.252;8.904;2023-01-26T00:50:42;100378.97;;;1.91;100.00
10638;BME280;47007;49.252;8.904;2023-01-26T00:51:24;100380.53;;;1.94;100.00
10638;BME280;47007;49.252;8.904;2023-01-26T00:52:06;100368.63;;;1.90;100.00
10638;BME280;47007;49.252;8.904;2023-01-26T00:52:48;100381.25;;;1.96;100.00
10638;BME280;47007;49.252;8.904;2023-01-26T00:53:29;100382.09;;;1.96;100.00
10638;BME280;47007;49.252;8.904;2023-01-26T00:54:14;100339.22;;;1.75;100.00
10638;BME280;47007;49.252;8.904;2023-01-26T00:54:56;100369.22;;;1.93;100.00
10638;BME280;47007;49.252;8.904;2023-01-26T00:55:38;100362.91;;;1.85;100.00
10638;BME280;47007;49.252;8.904;2023-01-26T00:56:19;100356.03;;;1.84;100.00
10638;BME280;47007;49.252;8.904;2023-01-26T00:57:01;100374.25;;;1.96;100.00
10638;BME280;47007;49.252;8.904;2023-01-26T00:57:43;100365.28;;;1.88;100.00
10638;BME280;47007;49.252;8.904;2023-01-26T00:58:25;100344.44;;;1.75;100.00
10638;BME280;47007;49.252;8.904;2023-01-26T00:59:06;100377.19;;;1.92;100.00
10638;BME280;47007;49.252;8.904;2023-01-26T00:59:49;100374.69;;;1.90;100.00
10638;BME280;47007;49.252;8.904;2023-01-26T01:00:31;100376.56;;;1.88;100.00
10638;BME280;47007;49.252;8.904;2023-01-26T01:01:13;100371.59;;;1.85;100.00
10638;BME280;47007;49.252;8.904;2023-01-26T01:01:56;100346.19;;;1.63;100.00
10638;BME280;47007;49.252;8.904;2023-01-26T01:02:38;100366.91;;;1.77;100.00
10638;BME280;47007;49.252;8.904;2023-01-26T01:03:20;100355.81;;;1.63;100.00
10638;BME280;47007;49.252;8.904;2023-01-26T01:04:02;100379.38;;;1.74;100.00
10638;BME280;47007;49.252;8.904;2023-01-26T01:04:43;100374.28;;;1.72;100.00
10638;BME280;47007;49.252;8.904;2023-01-26T01:05:27;100360.00;;;1.65;100.00
10638;BME280;47007;49.252;8.904;2023-01-26T01:06:09;100370.94;;;1.70;100.00
10638;BME280;47007;49.252;8.904;2023-01-26T01:06:51;100354.28;;;1.60;100.00
10638;BME280;47007;49.252;8.904;2023-01-26T01:07:32;100355.25;;;1.70;100.00
10638;BME280;47007;49.252;8.904;2023-01-26T01:08:14;100327.75;;;1.54;100.00
10638;BME280;47007;49.252;8.904;2023-01-26T01:08:56;100368.91;;;1.74;100.00
10638;BME280;47007;49.252;8.904;2023-01-26T01:09:38;100355.09;;;1.61;100.00
10638;BME280;47007;49.252;8.904;2023-01-26T01:10:19;100365.44;;;1.62;100.00
10638;BME280;47007;49.252;8.904;2023-01-26T01:11:04;100359.84;;;1.56;100.00
10638;BME280;47007;49.252;8.904;2023-01-26T01:11:46;100361.00;;;1.52;100.00
10638;BME280;47007;49.252;8.904;2023-01-26T01:12:28;100366.50;;;1.60;100.00
10638;BME280;47007;49.252;8.904;2023-01-26T01:13:10;100344.59;;;1.50;100.00
10638;BME280;47007;49.252;8.904;2023-01-26T01:13:53;100342.59;;;1.53;100.00
10638;BME280;47007;49.252;8.904;2023-01-26T01:14:35;100370.13;;;1.70;100.00
10638;BME280;47007;49.252;8.904;2023-01-26T01:15:17;100365.72;;;1.70;100.00
10638;BME280;47007;49.252;8.904;2023-01-26T01:15:59;100372.25;;;1.76;100.00
10638;BME280;47007;49.252;8.904;2023-01-26T01:16:41;100364.31;;;1.77;100.00
10638;BME280;47007;49.252;8.904;2023-01-26T01:17:23;100361.69;;;1.77;100.00
10638;BME280;47007;49.252;8.904;2023-01-26T01:18:05;100369.19;;;1.82;100.00
10638;BME280;47007;49.252;8.904;2023-01-26T01:18:47;100360.03;;;1.76;100.00
10638;BME280;47007;49.252;8.904;2023-01-26T01:19:28;100363.03;;;1.83;100.00
10638;BME280;47007;49.252;8.904;2023-01-26T01:20:10;100365.28;;;1.88;100.00
10638;BME280;47007;49.252;8.904;2023-01-26T01:20:55;100365.28;;;1.88;100.00
10638;BME280;47007;49.252;8.904;2023-01-26T01:21:39;100371.97;;;1.92;100.00
10638;BME280;47007;49.252;8.904;2023-01-26T01:22:23;100369.34;;;1.92;100.00
10638;BME280;47007;49.252;8.904;2023-01-26T01:23:06;100371.00;;;1.93;100.00
10638;BME280;47007;49.252;8.904;2023-01-26T01:23:48;100370.91;;;1.94;100.00
10638;BME280;47007;49.252;8.904;2023-01-26T01:24:31;100364.84;;;1.94;100.00
10638;BME280;47007;49.252;8.904;2023-01-26T01:25:14;100361.63;;;1.90;100.00
10638;BME280;47007;49.252;8.904;2023-01-26T01:25:57;100360.66;;;1.91;100.00
10638;BME280;47007;49.252;8.904;2023-01-26T01:26:40;100364.84;;;1.94;100.00
10638;BME280;47007;49.252;8.904;2023-01-26T01:27:23;100367.56;;;1.92;100.00
10638;BME280;47007;49.252;8.904;2023-01-26T01:28:05;100365.06;;;1.91;100.00
10638;BME280;47007;49.252;8.904;2023-01-26T01:28:47;100339.34;;;1.73;100.00
10638;BME280;47007;49.252;8.904;2023-01-26T01:29:28;100338.41;;;1.74;100.00
10638;BME280;47007;49.252;8.904;2023-01-26T01:30:10;100346.84;;;1.78;100.00
10638;BME280;47007;49.252;8.904;2023-01-26T01:30:53;100351.75;;;1.83;100.00
10638;BME280;47007;49.252;8.904;2023-01-26T01:31:35;100352.56;;;1.83;100.00
10638;BME280;47007;49.252;8.904;2023-01-26T01:32:18;100341.16;;;1.73;100.00
10638;BME280;47007;49.252;8.904;2023-01-26T01:33:00;100355.66;;;1.88;100.00
10638;BME280;47007;49.252;8.904;2023-01-26T01:33:41;100317.81;;;1.59;100.00
10638;BME280;47007;49.252;8.904;2023-01-26T01:34:23;100343.88;;;1.71;100.00
10638;BME280;47007;49.252;8.904;2023-01-26T01:35:06;100343.97;;;1.70;100.00
10638;BME280;47007;49.252;8.904;2023-01-26T01:36:17;100357.41;;;1.76;100.00
10638;BME280;47007;49.252;8.904;2023-01-26T01:36:58;100361.22;;;1.72;100.00
10638;BME280;47007;49.252;8.904;2023-01-26T01:37:40;100349.16;;;1.59;100.00
10638;BME280;47007;49.252;8.904;2023-01-26T01:38:22;100352.00;;;1.56;100.00
10638;BME280;47007;49.252;8.904;2023-01-26T01:39:04;100356.19;;;1.58;100.00
10638;BME280;47007;49.252;8.904;2023-01-26T01:39:47;100353.06;;;1.53;100.00
10638;BME280;47007;49.252;8.904;2023-01-26T01:40:29;100331.03;;;1.33;100.00
10638;BME280;47007;49.252;8.904;2023-01-26T01:41:13;100365.50;;;1.50;100.00
10638;BME280;47007;49.252;8.904;2023-01-26T01:41:59;100357.19;;;1.44;100.00
10638;BME280;47007;49.252;8.904;2023-01-26T01:42:47;100356.56;;;1.41;100.00
10638;BME280;47007;49.252;8.904;2023-01-26T01:43:29;100358.97;;;1.44;100.00
10638;BME280;47007;49.252;8.904;2023-01-26T01:46:47;100350.41;;;1.42;100.00
10638;BME280;47007;49.252;8.904;2023-01-26T01:47:22;100325.50;;;1.25;100.00
10638;BME280;47007;49.252;8.904;2023-01-26T01:49:04;100343.81;;;1.36;100.00
10638;BME280;47007;49.252;8.904;2023-01-26T01:49:49;100352.16;;;1.41;100.00
10638;BME280;47007;49.252;8.904;2023-01-26T01:50:36;100353.00;;;1.42;100.00
10638;BME280;47007;49.252;8.904;2023-01-26T01:51:28;100348.63;;;1.42;100.00
10638;BME280;47007;49.252;8.904;2023-01-26T01:52:14;100352.16;;;1.41;100.00
10638;BME280;47007;49.252;8.904;2023-01-26T01:52:58;100351.81;;;1.35;100.00
10638;BME280;47007;49.252;8.904;2023-01-26T01:53:43;100321.16;;;1.13;100.00
10638;BME280;47007;49.252;8.904;2023-01-26T01:54:30;100354.84;;;1.29;100.00
10638;BME280;47007;49.252;8.904;2023-01-26T01:55:14;100350.56;;;1.28;100.00
10638;BME280;47007;49.252;8.904;2023-01-26T01:56:03;100355.78;;;1.28;100.00
10638;BME280;47007;49.252;8.904;2023-01-26T01:56:49;100347.13;;;1.27;100.00
10638;BME280;47007;49.252;8.904;2023-01-26T01:57:42;100352.84;;;1.32;100.00
10638;BME280;47007;49.252;8.904;2023-01-26T01:58:29;100352.97;;;1.31;100.00
10638;BME280;47007;49.252;8.904;2023-01-26T01:59:12;100354.84;;;1.29;100.00
10638;BME280;47007;49.252;8.904;2023-01-26T02:00:08;100348.88;;;1.27;100.00
10638;BME280;47007;49.252;8.904;2023-01-26T02:00:59;100316.00;;;1.00;100.00
10638;BME280;47007;49.252;8.904;2023-01-26T02:01:40;100330.28;;;1.07;100.00
10638;BME280;47007;49.252;8.904;2023-01-26T02:02:22;100341.34;;;1.11;100.00
10638;BME280;47007;49.252;8.904;2023-01-26T02:03:06;100349.03;;;1.13;100.00
10638;BME280;47007;49.252;8.904;2023-01-26T02:03:55;100351.06;;;1.09;100.00
10638;BME280;47007;49.252;8.904;2023-01-26T02:04:40;100350.22;;;1.08;100.00
10638;BME280;47007;49.252;8.904;2023-01-26T02:05:26;100354.41;;;1.11;100.00
10638;BME280;47007;49.252;8.904;2023-01-26T02:07:24;100352.13;;;1.06;100.00
10638;BME280;47007;49.252;8.904;2023-01-26T02:08:07;100348.03;;;1.02;100.00
10638;BME280;47007;49.252;8.904;2023-01-26T02:08:52;100353.38;;;1.01;100.00
10638;BME280;47007;49.252;8.904;2023-01-26T02:09:36;100350.88;;;0.99;100.00
10638;BME280;47007;49.252;8.904;2023-01-26T02:10:38;100333.81;;;0.83;100.00
10638;BME280;47007;49.252;8.904;2023-01-26T02:11:36;100337.94;;;0.98;100.00
10638;BME280;47007;49.252;8.904;2023-01-26T02:12:21;100336.38;;;0.95;100.00
10638;BME280;47007;49.252;8.904;2023-01-26T02:13:04;100339.84;;;0.96;100.00
10638;BME280;47007;49.252;8.904;2023-01-26T02:13:47;100327.41;;;0.87;100.00
10638;BME280;47007;49.252;8.904;2023-01-26T02:14:32;100317.53;;;0.79;100.00
10638;BME280;47007;49.252;8.904;2023-01-26T02:15:15;100300.03;;;0.68;100.00
10638;BME280;47007;49.252;8.904;2023-01-26T02:15:58;100342.75;;;0.91;100.00
10638;BME280;47007;49.252;8.904;2023-01-26T02:16:40;100334.19;;;0.89;100.00
10638;BME280;47007;49.252;8.904;2023-01-26T02:17:23;100329.91;;;0.88;100.00
10638;BME280;47007;49.252;8.904;2023-01-26T02:18:05;100310.84;;;0.75;100.00
10638;BME280;47007;49.252;8.904;2023-01-26T02:18:47;100332.31;;;0.91;100.00
10638;BME280;47007;49.252;8.904;2023-01-26T02:20:52;100328.22;;;1.00;100.00
10638;BME280;47007;49.252;8.904;2023-01-26T02:21:34;100304.34;;;0.93;100.00
10638;BME280;47007;49.252;8.904;2023-01-26T02:23:22;100330.34;;;1.19;100.00
10638;BME280;47007;49.252;8.904;2023-01-26T02:24:24;100336.88;;;1.24;100.00
10638;BME280;47007;49.252;8.904;2023-01-26T02:26:23;100335.63;;;1.30;100.00
10638;BME280;47007;49.252;8.904;2023-01-26T02:27:06;100333.72;;;1.32;100.00
10638;BME280;47007;49.252;8.904;2023-01-26T02:27:48;100341.22;;;1.36;100.00
10638;BME280;47007;49.252;8.904;2023-01-26T02:28:29;100326.84;;;1.31;100.00
10638;BME280;47007;49.252;8.904;2023-01-26T02:29:12;100312.56;;;1.24;100.00
10638;BME280;47007;49.252;8.904;2023-01-26T02:29:58;100331.97;;;1.32;100.00
10638;BME280;47007;49.252;8.904;2023-01-26T02:30:42;100316.25;;;1.21;100.00
10638;BME280;47007;49.252;8.904;2023-01-26T02:31:24;100312.78;;;1.21;100.00
10638;BME280;47007;49.252;8.904;2023-01-26T02:32:08;100341.09;;;1.38;100.00
10638;BME280;47007;49.252;8.904;2023-01-26T02:32:51;100343.72;;;1.38;100.00
10638;BME280;47007;49.252;8.904;2023-01-26T02:33:32;100336.34;;;1.32;100.00
10638;BME280;47007;49.252;8.904;2023-01-26T02:34:17;100316.84;;;1.25;100.00
10638;BME280;47007;49.252;8.904;2023-01-26T02:34:58;100296.63;;;1.16;100.00
10638;BME280;47007;49.252;8.904;2023-01-26T02:35:40;100275.31;;;0.98;100.00
10638;BME280;47007;49.252;8.904;2023-01-26T02:36:28;100338.50;;;1.38;100.00
10638;BME280;47007;49.252;8.904;2023-01-26T02:37:13;100340.16;;;1.39;100.00
10638;BME280;47007;49.252;8.904;2023-01-26T02:37:56;100336.72;;;1.38;100.00
10638;BME280;47007;49.252;8.904;2023-01-26T02:38:41;100340.06;;;1.40;100.00
10638;BME280;47007;49.252;8.904;2023-01-26T02:40:29;100334.22;;;1.37;100.00
10638;BME280;47007;49.252;8.904;2023-01-26T02:41:17;100339.69;;;1.34;100.00
10638;BME280;47007;49.252;8.904;2023-01-26T02:42:19;100331.22;;;1.30;100.00
10638;BME280;47007;49.252;8.904;2023-01-26T02:43:19;100306.84;;;1.19;100.00
10638;BME280;47007;49.252;8.904;2023-01-26T02:44:03;100309.13;;;1.23;100.00
10638;BME280;47007;49.252;8.904;2023-01-26T02:44:45;100325.53;;;1.36;100.00
10638;BME280;47007;49.252;8.904;2023-01-26T02:45:29;100327.09;;;1.39;100.00
10638;BME280;47007;49.252;8.904;2023-01-26T02:46:11;100324.50;;;1.39;100.00
10638;BME280;47007;49.252;8.904;2023-01-26T02:46:54;100319.28;;;1.39;100.00
10638;BME280;47007;49.252;8.904;2023-01-26T02:47:36;100309.50;;;1.30;100.00
10638;BME280;47007;49.252;8.904;2023-01-26T02:48:19;100317.38;;;1.41;100.00
10638;BME280;47007;49.252;8.904;2023-01-26T02:49:19;100309.88;;;1.36;100.00
10638;BME280;47007;49.252;8.904;2023-01-26T02:50:20;100308.09;;;1.37;100.00
10638;BME280;47007;49.252;8.904;2023-01-26T02:51:02;100320.72;;;1.43;100.00
10638;BME280;47007;49.252;8.904;2023-01-26T02:51:45;100320.72;;;1.43;100.00
10638;BME280;47007;49.252;8.904;2023-01-26T02:52:28;100310.16;;;1.44;100.00
10638;BME280;47007;49.252;8.904;2023-01-26T02:53:17;100316.13;;;1.47;100.00
10638;BME280;47007;49.252;8.904;2023-01-26T02:53:58;100272.94;;;1.30;100.00
10638;BME280;47007;49.252;8.904;2023-01-26T02:54:40;100317.41;;;1.52;100.00
10638;BME280;47007;49.252;8.904;2023-01-26T02:55:40;100311.03;;;1.56;100.00
10638;BME280;47007;49.252;8.904;2023-01-26T02:56:22;100288.66;;;1.41;100.00
10638;BME280;47007;49.252;8.904;2023-01-26T02:57:04;100280.72;;;1.42;100.00
10638;BME280;47007;49.252;8.904;2023-01-26T02:57:47;100289.63;;;1.51;100.00
10638;BME280;47007;49.252;8.904;2023-01-26T02:58:29;100292.75;;;1.56;100.00
10638;BME280;47007;49.252;8.904;2023-01-26T02:59:10;100265.25;;;1.39;100.00
10638;BME280;47007;49.252;8.904;2023-01-26T02:59:52;100286.44;;;1.48;100.00
10638;BME280;47007;49.252;8.904;2023-01-26T03:00:35;100309.25;;;1.57;100.00
10638;BME280;47007;49.252;8.904;2023-01-26T03:01:18;100281.50;;;1.32;100.00
10638;BME280;47007;49.252;8.904;2023-01-26T03:02:02;100271.03;;;1.21;100.00
10638;BME280;47007;49.252;8.904;2023-01-26T03:02:45;100309.41;;;1.31;100.00
10638;BME280;47007;49.252;8.904;2023-01-26T03:03:28;100275.47;;;1.07;100.00
10638;BME280;47007;49.252;8.904;2023-01-26T03:04:22;100295.06;;;1.13;100.00
10638;BME280;47007;49.252;8.904;2023-01-26T03:05:04;100297.91;;;1.10;100.00
10638;BME280;47007;49.252;8.904;2023-01-26T03:05:46;100303.47;;;1.05;100.00
10638;BME280;47007;49.252;8.904;2023-01-26T03:06:28;100299.28;;;1.03;100.00
10638;BME280;47007;49.252;8.904;2023-01-26T03:07:11;100277.63;;;0.90;100.00
10638;BME280;47007;49.252;8.904;2023-01-26T03:07:52;100293.59;;;0.98;100.00
10638;BME280;47007;49.252;8.904;2023-01-26T03:08:38;100297.63;;;1.02;100.00
10638;BME280;47007;49.252;8.904;2023-01-26T03:09:20;100293.22;;;1.02;100.00
10638;BME280;47007;49.252;8.904;2023-01-26T03:10:02;100299.19;;;1.04;100.00
10638;BME280;47007;49.252;8.904;2023-01-26T03:10:45;100298.97;;;1.07;100.00
10638;BME280;47007;49.252;8.904;2023-01-26T03:11:28;100282.78;;;1.02;100.00
10638;BME280;47007;49.252;8.904;2023-01-26T03:12:22;100290.91;;;1.11;100.00
10638;BME280;47007;49.252;8.904;2023-01-26T03:13:04;100260.50;;;0.98;100.00
10638;BME280;47007;49.252;8.904;2023-01-26T03:13:46;100297.50;;;1.27;100.00
10638;BME280;47007;49.252;8.904;2023-01-26T03:14:28;100296.34;;;1.31;100.00
10638;BME280;47007;49.252;8.904;2023-01-26T03:15:10;100297.66;;;1.37;100.00
10638;BME280;47007;49.252;8.904;2023-01-26T03:16:11;100292.09;;;1.41;100.00
10638;BME280;47007;49.252;8.904;2023-01-26T03:16:54;100294.81;;;1.40;100.00
10638;BME280;47007;49.252;8.904;2023-01-26T03:17:37;100283.66;;;1.38;100.00
10638;BME280;47007;49.252;8.904;2023-01-26T03:18:21;100290.53;;;1.39;100.00
10638;BME280;47007;49.252;8.904;2023-01-26T03:19:21;100263.09;;;1.22;100.00
10638;BME280;47007;49.252;8.904;2023-01-26T03:20:23;100285.31;;;1.39;100.00
10638;BME280;47007;49.252;8.904;2023-01-26T03:21:23;100183.75;;;0.77;100.00
10638;BME280;47007;49.252;8.904;2023-01-26T03:22:26;100285.81;;;1.44;100.00
10638;BME280;47007;49.252;8.904;2023-01-26T03:23:27;100292.81;;;1.43;100.00
10638;BME280;47007;49.252;8.904;2023-01-26T03:24:28;100279.00;;;1.30;100.00
10638;BME280;47007;49.252;8.904;2023-01-26T03:25:29;100272.06;;;1.18;100.00
10638;BME280;47007;49.252;8.904;2023-01-26T03:26:29;100297.28;;;1.30;100.00
10638;BME280;47007;49.252;8.904;2023-01-26T03:27:34;100291.44;;;1.27;100.00
10638;BME280;47007;49.252;8.904;2023-01-26T03:28:17;100288.09;;;1.25;100.00
10638;BME280;47007;49.252;8.904;2023-01-26T03:29:03;100286.22;;;1.27;100.00
10638;BME280;47007;49.252;8.904;2023-01-26T03:29:45;100295.50;;;1.31;100.00
10638;BME280;47007;49.252;8.904;2023-01-26T03:30:27;100292.91;;;1.31;100.00
10638;BME280;47007;49.252;8.904;2023-01-26T03:31:09;100296.22;;;1.33;100.00
10638;BME280;47007;49.252;8.904;2023-01-26T03:31:52;100272.22;;;1.28;100.00
10638;BME280;47007;49.252;8.904;2023-01-26T03:32:34;100290.53;;;1.39;100.00
10638;BME280;47007;49.252;8.904;2023-01-26T03:33:19;100261.78;;;1.28;100.00
10638;BME280;47007;49.252;8.904;2023-01-26T03:34:02;100291.06;;;1.44;100.00
10638;BME280;47007;49.252;8.904;2023-01-26T03:34:44;100288.31;;;1.46;100.00
10638;BME280;47007;49.252;8.904;2023-01-26T03:35:26;100286.56;;;1.46;100.00
10638;BME280;47007;49.252;8.904;2023-01-26T03:36:08;100286.28;;;1.49;100.00
10638;BME280;47007;49.252;8.904;2023-01-26T03:36:50;100284.41;;;1.51;100.00
10638;BME280;47007;49.252;8.904;2023-01-26T03:37:36;100285.13;;;1.53;100.00
10638;BME280;47007;49.252;8.904;2023-01-26T03:38:28;100285.13;;;1.53;100.00
10638;BME280;47007;49.252;8.904;2023-01-26T03:39:11;100291.19;;;1.54;100.00
10638;BME280;47007;49.252;8.904;2023-01-26T03:40:14;100287.13;;;1.50;100.00
10638;BME280;47007;49.252;8.904;2023-01-26T03:41:14;100274.03;;;1.38;100.00
10638;BME280;47007;49.252;8.904;2023-01-26T03:42:14;100277.16;;;1.43;100.00
10638;BME280;47007;49.252;8.904;2023-01-26T03:43:15;100256.09;;;1.23;100.00
10638;BME280;47007;49.252;8.904;2023-01-26T03:44:15;100282.81;;;1.37;100.00
10638;BME280;47007;49.252;8.904;2023-01-26T03:45:15;100278.69;;;1.35;100.00
10638;BME280;47007;49.252;8.904;2023-01-26T03:46:16;100278.09;;;1.42;100.00
10638;BME280;47007;49.252;8.904;2023-01-26T03:47:18;100282.28;;;1.45;100.00
10638;BME280;47007;49.252;8.904;2023-01-26T03:48:18;100280.38;;;1.47;100.00
10638;BME280;47007;49.252;8.904;2023-01-26T03:49:19;100276.00;;;1.48;100.00
10638;BME280;47007;49.252;8.904;2023-01-26T03:50:20;100279.19;;;1.51;100.00
10638;BME280;47007;49.252;8.904;2023-01-26T03:51:21;100270.19;;;1.55;100.00
10638;BME280;47007;49.252;8.904;2023-01-26T03:52:21;100267.69;;;1.54;100.00
10638;BME280;47007;49.252;8.904;2023-01-26T03:53:23;100267.25;;;1.60;100.00
10638;BME280;47007;49.252;8.904;2023-01-26T03:54:26;100264.97;;;1.66;100.00
10638;BME280;47007;49.252;8.904;2023-01-26T03:55:26;100260.34;;;1.59;100.00
10638;BME280;47007;49.252;8.904;2023-01-26T03:56:27;100275.53;;;1.65;100.00
10638;BME280;47007;49.252;8.904;2023-01-26T03:57:18;100270.53;;;1.62;100.00
10638;BME280;47007;49.252;8.904;2023-01-26T03:57:59;100248.09;;;1.48;100.00
10638;BME280;47007;49.252;8.904;2023-01-26T03:58:44;100271.38;;;1.62;100.00
10638;BME280;47007;49.252;8.904;2023-01-26T03:59:26;100257.47;;;1.62;100.00
10638;BME280;47007;49.252;8.904;2023-01-26T04:00:31;100264.88;;;1.68;100.00
10638;BME280;47007;49.252;8.904;2023-01-26T04:01:13;100272.59;;;1.69;100.00
10638;BME280;47007;49.252;8.904;2023-01-26T04:02:13;100263.09;;;1.68;100.00
10638;BME280;47007;49.252;8.904;2023-01-26T04:03:14;100251.16;;;1.53;100.00
10638;BME280;47007;49.252;8.904;2023-01-26T04:04:15;100258.69;;;1.58;100.00
10638;BME280;47007;49.252;8.904;2023-01-26T04:05:15;100254.63;;;1.54;100.00
10638;BME280;47007;49.252;8.904;2023-01-26T04:06:16;100217.28;;;1.29;100.00
10638;BME280;47007;49.252;8.904;2023-01-26T04:07:17;100250.44;;;1.51;100.00
10638;BME280;47007;49.252;8.904;2023-01-26T04:08:17;100259.03;;;1.64;100.00